sensor_id;sensor_type;location;lat;lon;timestamp;P1;durP1;ratioP1;P2;durP2;ratioP2
62696;SDS011;48761;42.680;23.312;2022-12-18T00:01:22;8.57;;;6.18;;
62696;SDS011;48761;42.680;23.312;2022-12-18T00:03:51;9.98;;;6.72;;
62696;SDS011;48761;42.680;23.312;2022-12-18T00:06:18;9.50;;;6.35;;
62696;SDS011;48761;42.680;23.312;2022-12-18T00:08:45;9.63;;;6.93;;
62696;SDS011;48761;42.680;23.312;2022-12-18T00:11:15;9.35;;;7.18;;
62696;SDS011;48761;42.680;23.312;2022-12-18T00:13:43;10.13;;;7.28;;
62696;SDS011;48761;42.680;23.312;2022-12-18T00:16:11;12.57;;;7.93;;
62696;SDS011;48761;42.680;23.312;2022-12-18T00:18:39;9.23;;;6.68;;
62696;SDS011;48761;42.680;23.312;2022-12-18T00:21:06;9.75;;;7.43;;
62696;SDS011;48761;42.680;23.312;2022-12-18T00:23:34;10.57;;;7.55;;
62696;SDS011;48761;42.680;23.312;2022-12-18T00:26:01;10.52;;;7.28;;
62696;SDS011;48761;42.680;23.312;2022-12-18T00:28:29;10.77;;;7.65;;
62696;SDS011;48761;42.680;23.312;2022-12-18T00:30:59;10.40;;;7.65;;
62696;SDS011;48761;42.680;23.312;2022-12-18T00:33:29;10.27;;;7.72;;
62696;SDS011;48761;42.680;23.312;2022-12-18T00:36:00;11.77;;;8.18;;
62696;SDS011;48761;42.680;23.312;2022-12-18T00:38:33;15.65;;;8.63;;
62696;SDS011;48761;42.680;23.312;2022-12-18T00:40:59;11.70;;;8.18;;
62696;SDS011;48761;42.680;23.312;2022-12-18T00:43:25;12.80;;;8.52;;
62696;SDS011;48761;42.680;23.312;2022-12-18T00:45:51;12.20;;;8.10;;
62696;SDS011;48761;42.680;23.312;2022-12-18T00:48:17;11.63;;;7.88;;
62696;SDS011;48761;42.680;23.312;2022-12-18T00:50:43;11.40;;;7.90;;
62696;SDS011;48761;42.680;23.312;2022-12-18T00:53:10;16.23;;;8.82;;
62696;SDS011;48761;42.680;23.312;2022-12-18T00:55:40;11.80;;;8.23;;
62696;SDS011;48761;42.680;23.312;2022-12-18T00:58:07;12.43;;;9.20;;
62696;SDS011;48761;42.680;23.312;2022-12-18T01:00:33;12.50;;;8.32;;
62696;SDS011;48761;42.680;23.312;2022-12-18T01:03:00;11.63;;;8.27;;
62696;SDS011;48761;42.680;23.312;2022-12-18T01:05:26;11.95;;;8.30;;
62696;SDS011;48761;42.680;23.312;2022-12-18T01:07:52;12.07;;;8.23;;
62696;SDS011;48761;42.680;23.312;2022-12-18T01:10:18;13.40;;;8.90;;
62696;SDS011;48761;42.680;23.312;2022-12-18T01:12:43;13.27;;;8.00;;
62696;SDS011;48761;42.680;23.312;2022-12-18T01:15:10;11.70;;;8.05;;
62696;SDS011;48761;42.680;23.312;2022-12-18T01:17:37;12.90;;;8.05;;
62696;SDS011;48761;42.680;23.312;2022-12-18T01:20:04;12.20;;;7.72;;
62696;SDS011;48761;42.680;23.312;2022-12-18T01:22:34;11.73;;;8.13;;
62696;SDS011;48761;42.680;23.312;2022-12-18T01:25:00;12.45;;;8.68;;
62696;SDS011;48761;42.680;23.312;2022-12-18T01:27:27;12.65;;;8.38;;
62696;SDS011;48761;42.680;23.312;2022-12-18T01:29:53;13.40;;;9.00;;
62696;SDS011;48761;42.680;23.312;2022-12-18T01:32:19;14.55;;;8.93;;
62696;SDS011;48761;42.680;23.312;2022-12-18T01:34:46;16.38;;;10.63;;
62696;SDS011;48761;42.680;23.312;2022-12-18T01:37:12;16.60;;;9.95;;
62696;SDS011;48761;42.680;23.312;2022-12-18T01:39:38;14.98;;;9.35;;
62696;SDS011;48761;42.680;23.312;2022-12-18T01:42:05;14.25;;;9.75;;
62696;SDS011;48761;42.680;23.312;2022-12-18T01:47:25;13.75;;;9.93;;
62696;SDS011;48761;42.680;23.312;2022-12-18T01:52:56;16.48;;;9.32;;
62696;SDS011;48761;42.680;23.312;2022-12-18T01:55:26;15.20;;;8.95;;
62696;SDS011;48761;42.680;23.312;2022-12-18T01:57:56;13.48;;;8.95;;
62696;SDS011;48761;42.680;23.312;2022-12-18T02:00:24;14.45;;;9.48;;
62696;SDS011;48761;42.680;23.312;2022-12-18T02:02:51;12.15;;;8.73;;
62696;SDS011;48761;42.680;23.312;2022-12-18T02:05:19;14.25;;;8.82;;
62696;SDS011;48761;42.680;23.312;2022-12-18T02:10:57;14.02;;;9.32;;
62696;SDS011;48761;42.680;23.312;2022-12-18T02:13:41;13.50;;;8.57;;
62696;SDS011;48761;42.680;23.312;2022-12-18T02:18:53;15.32;;;9.07;;
62696;SDS011;48761;42.680;23.312;2022-12-18T02:26:53;11.63;;;7.95;;
62696;SDS011;48761;42.680;23.312;2022-12-18T02:31:51;12.65;;;8.50;;
62696;SDS011;48761;42.680;23.312;2022-12-18T02:34:21;12.65;;;8.27;;
62696;SDS011;48761;42.680;23.312;2022-12-18T02:36:50;12.18;;;7.95;;
62696;SDS011;48761;42.680;23.312;2022-12-18T02:39:18;11.63;;;8.38;;
62696;SDS011;48761;42.680;23.312;2022-12-18T02:41:47;13.35;;;8.60;;
62696;SDS011;48761;42.680;23.312;2022-12-18T02:44:14;13.32;;;8.70;;
62696;SDS011;48761;42.680;23.312;2022-12-18T02:46:43;12.35;;;8.38;;
62696;SDS011;48761;42.680;23.312;2022-12-18T02:52:17;12.85;;;8.40;;
62696;SDS011;48761;42.680;23.312;2022-12-18T02:57:55;11.98;;;7.82;;
62696;SDS011;48761;42.680;23.312;2022-12-18T03:00:31;11.32;;;8.30;;
62696;SDS011;48761;42.680;23.312;2022-12-18T03:03:19;12.88;;;8.35;;
62696;SDS011;48761;42.680;23.312;2022-12-18T03:08:23;15.05;;;8.63;;
62696;SDS011;48761;42.680;23.312;2022-12-18T03:11:00;14.05;;;9.18;;
62696;SDS011;48761;42.680;23.312;2022-12-18T03:13:40;12.45;;;8.70;;
62696;SDS011;48761;42.680;23.312;2022-12-18T03:16:17;12.35;;;8.27;;
62696;SDS011;48761;42.680;23.312;2022-12-18T03:18:57;13.18;;;8.82;;
62696;SDS011;48761;42.680;23.312;2022-12-18T03:21:33;12.60;;;8.70;;
62696;SDS011;48761;42.680;23.312;2022-12-18T03:24:12;11.38;;;7.78;;
62696;SDS011;48761;42.680;23.312;2022-12-18T03:26:41;13.27;;;8.70;;
62696;SDS011;48761;42.680;23.312;2022-12-18T03:29:21;15.20;;;9.65;;
62696;SDS011;48761;42.680;23.312;2022-12-18T03:31:53;14.10;;;9.43;;
62696;SDS011;48761;42.680;23.312;2022-12-18T03:34:27;13.73;;;8.90;;
62696;SDS011;48761;42.680;23.312;2022-12-18T03:36:56;12.68;;;8.13;;
62696;SDS011;48761;42.680;23.312;2022-12-18T03:39:22;11.52;;;8.18;;
62696;SDS011;48761;42.680;23.312;2022-12-18T03:44:32;12.10;;;8.32;;
62696;SDS011;48761;42.680;23.312;2022-12-18T03:47:26;13.45;;;9.15;;
62696;SDS011;48761;42.680;23.312;2022-12-18T03:50:33;14.18;;;8.85;;
62696;SDS011;48761;42.680;23.312;2022-12-18T03:52:52;13.23;;;8.88;;
62696;SDS011;48761;42.680;23.312;2022-12-18T03:55:23;13.50;;;8.93;;
62696;SDS011;48761;42.680;23.312;2022-12-18T03:57:53;13.32;;;8.68;;
62696;SDS011;48761;42.680;23.312;2022-12-18T04:00:20;12.80;;;8.48;;
62696;SDS011;48761;42.680;23.312;2022-12-18T04:02:51;14.70;;;9.20;;
62696;SDS011;48761;42.680;23.312;2022-12-18T04:05:19;13.23;;;8.57;;
62696;SDS011;48761;42.680;23.312;2022-12-18T04:07:46;13.52;;;9.15;;
62696;SDS011;48761;42.680;23.312;2022-12-18T04:10:13;17.27;;;9.57;;
62696;SDS011;48761;42.680;23.312;2022-12-18T04:12:41;17.67;;;11.13;;
62696;SDS011;48761;42.680;23.312;2022-12-18T04:15:08;16.40;;;10.45;;
62696;SDS011;48761;42.680;23.312;2022-12-18T04:17:34;15.05;;;10.23;;
62696;SDS011;48761;42.680;23.312;2022-12-18T04:20:00;14.10;;;9.48;;
62696;SDS011;48761;42.680;23.312;2022-12-18T04:22:26;17.38;;;9.77;;
62696;SDS011;48761;42.680;23.312;2022-12-18T04:24:52;15.77;;;9.65;;
62696;SDS011;48761;42.680;23.312;2022-12-18T04:27:19;13.95;;;8.35;;
62696;SDS011;48761;42.680;23.312;2022-12-18T04:29:45;18.85;;;9.43;;
62696;SDS011;48761;42.680;23.312;2022-12-18T04:32:10;14.40;;;9.38;;
62696;SDS011;48761;42.680;23.312;2022-12-18T04:34:36;15.98;;;9.32;;
62696;SDS011;48761;42.680;23.312;2022-12-18T04:37:02;14.05;;;9.70;;
62696;SDS011;48761;42.680;23.312;2022-12-18T04:39:28;14.70;;;9.30;;
62696;SDS011;48761;42.680;23.312;2022-12-18T04:41:54;15.07;;;10.57;;
62696;SDS011;48761;42.680;23.312;2022-12-18T04:44:21;19.10;;;11.85;;
62696;SDS011;48761;42.680;23.312;2022-12-18T04:46:47;17.85;;;10.55;;
62696;SDS011;48761;42.680;23.312;2022-12-18T04:49:12;16.35;;;10.00;;
62696;SDS011;48761;42.680;23.312;2022-12-18T04:51:38;18.13;;;11.15;;
62696;SDS011;48761;42.680;23.312;2022-12-18T04:54:04;19.27;;;10.85;;
62696;SDS011;48761;42.680;23.312;2022-12-18T04:56:31;19.80;;;11.93;;
62696;SDS011;48761;42.680;23.312;2022-12-18T04:58:57;19.65;;;11.50;;
62696;SDS011;48761;42.680;23.312;2022-12-18T05:01:23;20.50;;;11.52;;
62696;SDS011;48761;42.680;23.312;2022-12-18T05:03:50;19.25;;;12.27;;
62696;SDS011;48761;42.680;23.312;2022-12-18T05:06:17;21.65;;;12.25;;
62696;SDS011;48761;42.680;23.312;2022-12-18T05:08:43;19.95;;;12.30;;
62696;SDS011;48761;42.680;23.312;2022-12-18T05:11:10;21.67;;;12.85;;
62696;SDS011;48761;42.680;23.312;2022-12-18T05:13:38;21.88;;;13.27;;
62696;SDS011;48761;42.680;23.312;2022-12-18T05:16:04;22.30;;;13.20;;
62696;SDS011;48761;42.680;23.312;2022-12-18T05:18:31;19.38;;;12.65;;
62696;SDS011;48761;42.680;23.312;2022-12-18T05:20:57;20.88;;;12.40;;
62696;SDS011;48761;42.680;23.312;2022-12-18T05:23:23;19.27;;;11.95;;
62696;SDS011;48761;42.680;23.312;2022-12-18T05:25:54;21.10;;;12.13;;
62696;SDS011;48761;42.680;23.312;2022-12-18T05:28:24;19.92;;;12.73;;
62696;SDS011;48761;42.680;23.312;2022-12-18T05:30:52;19.42;;;12.23;;
62696;SDS011;48761;42.680;23.312;2022-12-18T05:33:21;20.88;;;12.68;;
62696;SDS011;48761;42.680;23.312;2022-12-18T05:35:51;21.48;;;13.05;;
62696;SDS011;48761;42.680;23.312;2022-12-18T05:38:22;22.23;;;13.18;;
62696;SDS011;48761;42.680;23.312;2022-12-18T05:40:49;23.55;;;13.98;;
62696;SDS011;48761;42.680;23.312;2022-12-18T05:43:16;20.08;;;12.98;;
62696;SDS011;48761;42.680;23.312;2022-12-18T05:45:42;21.08;;;12.93;;
62696;SDS011;48761;42.680;23.312;2022-12-18T05:48:08;24.20;;;13.45;;
62696;SDS011;48761;42.680;23.312;2022-12-18T05:50:37;24.45;;;13.32;;
62696;SDS011;48761;42.680;23.312;2022-12-18T05:53:05;21.55;;;13.00;;
62696;SDS011;48761;42.680;23.312;2022-12-18T05:55:33;22.38;;;13.52;;
62696;SDS011;48761;42.680;23.312;2022-12-18T05:58:00;24.27;;;14.15;;
62696;SDS011;48761;42.680;23.312;2022-12-18T06:00:26;25.20;;;14.63;;
62696;SDS011;48761;42.680;23.312;2022-12-18T06:02:52;25.20;;;14.98;;
62696;SDS011;48761;42.680;23.312;2022-12-18T06:05:18;23.83;;;14.85;;
62696;SDS011;48761;42.680;23.312;2022-12-18T06:07:44;24.60;;;15.43;;
62696;SDS011;48761;42.680;23.312;2022-12-18T06:10:10;28.38;;;16.58;;
62696;SDS011;48761;42.680;23.312;2022-12-18T06:12:36;25.52;;;15.07;;
62696;SDS011;48761;42.680;23.312;2022-12-18T06:15:03;24.40;;;14.77;;
62696;SDS011;48761;42.680;23.312;2022-12-18T06:17:30;25.95;;;15.77;;
62696;SDS011;48761;42.680;23.312;2022-12-18T06:19:57;25.60;;;15.32;;
62696;SDS011;48761;42.680;23.312;2022-12-18T06:22:23;25.25;;;14.43;;
62696;SDS011;48761;42.680;23.312;2022-12-18T06:24:50;24.08;;;15.00;;
62696;SDS011;48761;42.680;23.312;2022-12-18T06:27:16;27.15;;;15.40;;
62696;SDS011;48761;42.680;23.312;2022-12-18T06:29:42;27.23;;;16.02;;
62696;SDS011;48761;42.680;23.312;2022-12-18T06:32:08;29.15;;;15.98;;
62696;SDS011;48761;42.680;23.312;2022-12-18T06:34:36;27.63;;;15.27;;
62696;SDS011;48761;42.680;23.312;2022-12-18T06:37:03;24.30;;;15.70;;
62696;SDS011;48761;42.680;23.312;2022-12-18T06:39:29;24.48;;;15.63;;
62696;SDS011;48761;42.680;23.312;2022-12-18T06:41:55;25.73;;;15.70;;
62696;SDS011;48761;42.680;23.312;2022-12-18T06:44:21;27.13;;;16.63;;
62696;SDS011;48761;42.680;23.312;2022-12-18T06:46:47;27.58;;;16.45;;
62696;SDS011;48761;42.680;23.312;2022-12-18T06:49:13;25.00;;;15.18;;
62696;SDS011;48761;42.680;23.312;2022-12-18T06:51:39;28.50;;;15.80;;
62696;SDS011;48761;42.680;23.312;2022-12-18T06:54:05;27.73;;;15.80;;
62696;SDS011;48761;42.680;23.312;2022-12-18T06:56:31;25.13;;;14.90;;
62696;SDS011;48761;42.680;23.312;2022-12-18T06:58:56;27.67;;;15.80;;
62696;SDS011;48761;42.680;23.312;2022-12-18T07:01:22;27.00;;;15.90;;
62696;SDS011;48761;42.680;23.312;2022-12-18T07:03:52;26.15;;;15.35;;
62696;SDS011;48761;42.680;23.312;2022-12-18T07:06:20;23.80;;;14.07;;
62696;SDS011;48761;42.680;23.312;2022-12-18T07:08:48;24.27;;;15.52;;
62696;SDS011;48761;42.680;23.312;2022-12-18T07:11:16;24.80;;;15.95;;
62696;SDS011;48761;42.680;23.312;2022-12-18T07:13:43;27.35;;;16.05;;
62696;SDS011;48761;42.680;23.312;2022-12-18T07:16:12;78.63;;;44.45;;
62696;SDS011;48761;42.680;23.312;2022-12-18T07:18:43;47.70;;;26.58;;
62696;SDS011;48761;42.680;23.312;2022-12-18T07:21:11;26.33;;;16.25;;
62696;SDS011;48761;42.680;23.312;2022-12-18T07:23:39;25.48;;;15.75;;
62696;SDS011;48761;42.680;23.312;2022-12-18T07:26:06;26.20;;;16.35;;
62696;SDS011;48761;42.680;23.312;2022-12-18T07:28:33;29.30;;;17.85;;
62696;SDS011;48761;42.680;23.312;2022-12-18T07:31:03;29.63;;;17.13;;
62696;SDS011;48761;42.680;23.312;2022-12-18T07:33:30;31.67;;;17.88;;
62696;SDS011;48761;42.680;23.312;2022-12-18T07:35:58;32.30;;;18.92;;
62696;SDS011;48761;42.680;23.312;2022-12-18T07:38:24;33.15;;;19.08;;
62696;SDS011;48761;42.680;23.312;2022-12-18T07:40:50;30.15;;;18.98;;
62696;SDS011;48761;42.680;23.312;2022-12-18T07:43:16;34.58;;;19.63;;
62696;SDS011;48761;42.680;23.312;2022-12-18T07:45:42;32.50;;;19.55;;
62696;SDS011;48761;42.680;23.312;2022-12-18T07:48:09;32.67;;;19.23;;
62696;SDS011;48761;42.680;23.312;2022-12-18T07:50:35;35.50;;;19.63;;
62696;SDS011;48761;42.680;23.312;2022-12-18T07:53:01;35.50;;;19.85;;
62696;SDS011;48761;42.680;23.312;2022-12-18T07:55:27;36.65;;;20.30;;
62696;SDS011;48761;42.680;23.312;2022-12-18T07:57:53;33.25;;;19.90;;
62696;SDS011;48761;42.680;23.312;2022-12-18T08:00:19;36.33;;;19.23;;
62696;SDS011;48761;42.680;23.312;2022-12-18T08:02:45;35.30;;;20.55;;
62696;SDS011;48761;42.680;23.312;2022-12-18T08:05:12;39.08;;;21.08;;
62696;SDS011;48761;42.680;23.312;2022-12-18T08:07:39;39.63;;;22.30;;
62696;SDS011;48761;42.680;23.312;2022-12-18T08:10:05;38.13;;;21.25;;
62696;SDS011;48761;42.680;23.312;2022-12-18T08:12:32;35.05;;;20.65;;
62696;SDS011;48761;42.680;23.312;2022-12-18T08:14:57;34.47;;;21.33;;
62696;SDS011;48761;42.680;23.312;2022-12-18T08:17:23;37.80;;;22.02;;
62696;SDS011;48761;42.680;23.312;2022-12-18T08:19:50;34.53;;;20.20;;
62696;SDS011;48761;42.680;23.312;2022-12-18T08:22:16;34.25;;;20.88;;
62696;SDS011;48761;42.680;23.312;2022-12-18T08:24:43;39.25;;;23.13;;
62696;SDS011;48761;42.680;23.312;2022-12-18T08:27:08;42.15;;;24.42;;
62696;SDS011;48761;42.680;23.312;2022-12-18T08:29:34;41.33;;;23.73;;
62696;SDS011;48761;42.680;23.312;2022-12-18T08:32:00;36.33;;;21.58;;
62696;SDS011;48761;42.680;23.312;2022-12-18T08:34:26;39.47;;;23.10;;
62696;SDS011;48761;42.680;23.312;2022-12-18T08:36:52;38.33;;;20.88;;
62696;SDS011;48761;42.680;23.312;2022-12-18T08:39:18;32.13;;;19.88;;
62696;SDS011;48761;42.680;23.312;2022-12-18T08:41:44;35.78;;;20.67;;
62696;SDS011;48761;42.680;23.312;2022-12-18T08:44:10;33.85;;;19.60;;
62696;SDS011;48761;42.680;23.312;2022-12-18T08:46:39;37.65;;;20.90;;
62696;SDS011;48761;42.680;23.312;2022-12-18T08:49:07;35.75;;;19.77;;
62696;SDS011;48761;42.680;23.312;2022-12-18T08:51:35;32.72;;;18.92;;
62696;SDS011;48761;42.680;23.312;2022-12-18T08:54:01;31.50;;;18.70;;
62696;SDS011;48761;42.680;23.312;2022-12-18T08:56:28;35.08;;;19.25;;
62696;SDS011;48761;42.680;23.312;2022-12-18T08:58:54;31.95;;;19.20;;
62696;SDS011;48761;42.680;23.312;2022-12-18T09:01:20;32.67;;;18.85;;
62696;SDS011;48761;42.680;23.312;2022-12-18T09:03:48;31.77;;;19.55;;
62696;SDS011;48761;42.680;23.312;2022-12-18T09:06:14;34.25;;;19.83;;
62696;SDS011;48761;42.680;23.312;2022-12-18T09:08:43;32.70;;;18.60;;
62696;SDS011;48761;42.680;23.312;2022-12-18T09:11:19;36.25;;;19.92;;
62696;SDS011;48761;42.680;23.312;2022-12-18T09:13:51;34.08;;;20.42;;
62696;SDS011;48761;42.680;23.312;2022-12-18T09:16:18;35.10;;;19.20;;
62696;SDS011;48761;42.680;23.312;2022-12-18T09:18:44;34.05;;;18.90;;
62696;SDS011;48761;42.680;23.312;2022-12-18T09:21:10;33.05;;;18.63;;
62696;SDS011;48761;42.680;23.312;2022-12-18T09:23:39;34.67;;;19.50;;
62696;SDS011;48761;42.680;23.312;2022-12-18T09:26:05;36.22;;;20.42;;
62696;SDS011;48761;42.680;23.312;2022-12-18T09:28:31;29.55;;;17.98;;
62696;SDS011;48761;42.680;23.312;2022-12-18T09:30:57;33.35;;;18.23;;
62696;SDS011;48761;42.680;23.312;2022-12-18T09:33:23;35.42;;;18.45;;
62696;SDS011;48761;42.680;23.312;2022-12-18T09:35:49;31.65;;;17.40;;
62696;SDS011;48761;42.680;23.312;2022-12-18T09:38:16;32.40;;;17.92;;
62696;SDS011;48761;42.680;23.312;2022-12-18T09:40:53;31.33;;;17.38;;
62696;SDS011;48761;42.680;23.312;2022-12-18T09:43:26;26.30;;;15.48;;
62696;SDS011;48761;42.680;23.312;2022-12-18T09:46:01;30.70;;;16.98;;
62696;SDS011;48761;42.680;23.312;2022-12-18T09:48:40;29.85;;;16.20;;
62696;SDS011;48761;42.680;23.312;2022-12-18T09:51:18;26.02;;;16.67;;
62696;SDS011;48761;42.680;23.312;2022-12-18T09:53:55;30.83;;;17.90;;
62696;SDS011;48761;42.680;23.312;2022-12-18T09:56:25;30.60;;;16.85;;
62696;SDS011;48761;42.680;23.312;2022-12-18T10:01:27;33.40;;;18.55;;
62696;SDS011;48761;42.680;23.312;2022-12-18T10:03:54;29.95;;;16.90;;
62696;SDS011;48761;42.680;23.312;2022-12-18T10:06:29;31.08;;;17.60;;
62696;SDS011;48761;42.680;23.312;2022-12-18T10:09:48;30.08;;;16.60;;
62696;SDS011;48761;42.680;23.312;2022-12-18T10:17:32;29.25;;;16.33;;
62696;SDS011;48761;42.680;23.312;2022-12-18T10:20:16;25.92;;;15.75;;
62696;SDS011;48761;42.680;23.312;2022-12-18T10:23:14;27.13;;;15.98;;
62696;SDS011;48761;42.680;23.312;2022-12-18T10:28:27;30.40;;;17.50;;
62696;SDS011;48761;42.680;23.312;2022-12-18T10:30:56;30.05;;;16.30;;
62696;SDS011;48761;42.680;23.312;2022-12-18T10:33:23;28.30;;;16.27;;
62696;SDS011;48761;42.680;23.312;2022-12-18T10:35:53;28.25;;;16.33;;
62696;SDS011;48761;42.680;23.312;2022-12-18T10:38:21;29.35;;;17.90;;
62696;SDS011;48761;42.680;23.312;2022-12-18T10:43:29;28.98;;;17.13;;
62696;SDS011;48761;42.680;23.312;2022-12-18T10:46:00;34.95;;;18.05;;
62696;SDS011;48761;42.680;23.312;2022-12-18T10:51:26;30.77;;;17.20;;
62696;SDS011;48761;42.680;23.312;2022-12-18T10:54:02;31.17;;;18.60;;
62696;SDS011;48761;42.680;23.312;2022-12-18T10:56:30;33.33;;;19.58;;
62696;SDS011;48761;42.680;23.312;2022-12-18T10:59:02;36.50;;;19.33;;
62696;SDS011;48761;42.680;23.312;2022-12-18T11:01:46;31.15;;;18.50;;
62696;SDS011;48761;42.680;23.312;2022-12-18T11:04:32;31.80;;;17.55;;
62696;SDS011;48761;42.680;23.312;2022-12-18T11:09:27;23.38;;;14.63;;
62696;SDS011;48761;42.680;23.312;2022-12-18T11:11:55;26.50;;;15.02;;
62696;SDS011;48761;42.680;23.312;2022-12-18T11:14:25;29.35;;;15.93;;
62696;SDS011;48761;42.680;23.312;2022-12-18T11:16:53;30.77;;;16.27;;
62696;SDS011;48761;42.680;23.312;2022-12-18T11:21:55;32.13;;;16.88;;
62696;SDS011;48761;42.680;23.312;2022-12-18T11:26:59;26.50;;;15.35;;
62696;SDS011;48761;42.680;23.312;2022-12-18T11:29:30;28.70;;;15.32;;
62696;SDS011;48761;42.680;23.312;2022-12-18T11:32:13;24.27;;;14.55;;
62696;SDS011;48761;42.680;23.312;2022-12-18T11:35:18;23.63;;;14.13;;
62696;SDS011;48761;42.680;23.312;2022-12-18T11:38:18;27.48;;;15.55;;
62696;SDS011;48761;42.680;23.312;2022-12-18T11:46:17;25.25;;;15.20;;
62696;SDS011;48761;42.680;23.312;2022-12-18T11:49:19;27.05;;;15.25;;
62696;SDS011;48761;42.680;23.312;2022-12-18T11:54:43;31.27;;;15.85;;
62696;SDS011;48761;42.680;23.312;2022-12-18T12:00:15;23.88;;;14.23;;
62696;SDS011;48761;42.680;23.312;2022-12-18T12:11:24;30.75;;;17.15;;
62696;SDS011;48761;42.680;23.312;2022-12-18T12:22:44;30.75;;;16.58;;
62696;SDS011;48761;42.680;23.312;2022-12-18T12:39:01;29.88;;;16.80;;
62696;SDS011;48761;42.680;23.312;2022-12-18T12:41:39;31.45;;;17.60;;
62696;SDS011;48761;42.680;23.312;2022-12-18T12:44:08;29.65;;;18.00;;
62696;SDS011;48761;42.680;23.312;2022-12-18T12:46:39;32.75;;;17.73;;
62696;SDS011;48761;42.680;23.312;2022-12-18T12:49:12;35.97;;;19.67;;
62696;SDS011;48761;42.680;23.312;2022-12-18T12:51:43;29.63;;;18.17;;
62696;SDS011;48761;42.680;23.312;2022-12-18T12:54:17;32.38;;;19.15;;
62696;SDS011;48761;42.680;23.312;2022-12-18T12:59:34;31.05;;;18.48;;
62696;SDS011;48761;42.680;23.312;2022-12-18T13:02:15;37.03;;;18.75;;
62696;SDS011;48761;42.680;23.312;2022-12-18T13:04:49;33.28;;;19.17;;
62696;SDS011;48761;42.680;23.312;2022-12-18T13:12:58;29.40;;;17.80;;
62696;SDS011;48761;42.680;23.312;2022-12-18T13:20:46;37.80;;;19.00;;
62696;SDS011;48761;42.680;23.312;2022-12-18T13:23:34;33.70;;;18.52;;
62696;SDS011;48761;42.680;23.312;2022-12-18T13:30:58;35.05;;;17.67;;
62696;SDS011;48761;42.680;23.312;2022-12-18T13:36:00;32.28;;;18.33;;
62696;SDS011;48761;42.680;23.312;2022-12-18T13:38:36;31.70;;;17.38;;
62696;SDS011;48761;42.680;23.312;2022-12-18T13:43:54;118.07;;;70.75;;
62696;SDS011;48761;42.680;23.312;2022-12-18T13:49:02;73.85;;;43.15;;
62696;SDS011;48761;42.680;23.312;2022-12-18T13:51:31;44.47;;;26.67;;
62696;SDS011;48761;42.680;23.312;2022-12-18T13:54:05;86.15;;;51.22;;
62696;SDS011;48761;42.680;23.312;2022-12-18T13:56:48;45.60;;;25.55;;
62696;SDS011;48761;42.680;23.312;2022-12-18T13:59:15;95.60;;;51.85;;
62696;SDS011;48761;42.680;23.312;2022-12-18T14:01:48;44.53;;;25.83;;
62696;SDS011;48761;42.680;23.312;2022-12-18T14:04:51;28.92;;;17.60;;
62696;SDS011;48761;42.680;23.312;2022-12-18T14:09:41;30.83;;;18.02;;
62696;SDS011;48761;42.680;23.312;2022-12-18T14:12:14;30.70;;;18.00;;
62696;SDS011;48761;42.680;23.312;2022-12-18T14:14:51;29.92;;;16.67;;
62696;SDS011;48761;42.680;23.312;2022-12-18T14:17:18;30.25;;;16.92;;
62696;SDS011;48761;42.680;23.312;2022-12-18T14:19:45;34.88;;;17.33;;
62696;SDS011;48761;42.680;23.312;2022-12-18T14:22:14;28.15;;;15.88;;
62696;SDS011;48761;42.680;23.312;2022-12-18T14:24:45;34.58;;;17.00;;
62696;SDS011;48761;42.680;23.312;2022-12-18T14:27:19;35.75;;;18.05;;
62696;SDS011;48761;42.680;23.312;2022-12-18T14:29:47;28.40;;;15.65;;
62696;SDS011;48761;42.680;23.312;2022-12-18T14:32:15;25.38;;;15.23;;
62696;SDS011;48761;42.680;23.312;2022-12-18T14:34:41;28.40;;;16.30;;
62696;SDS011;48761;42.680;23.312;2022-12-18T14:37:09;27.35;;;16.40;;
62696;SDS011;48761;42.680;23.312;2022-12-18T14:39:36;26.20;;;14.88;;
62696;SDS011;48761;42.680;23.312;2022-12-18T14:42:02;27.25;;;15.00;;
62696;SDS011;48761;42.680;23.312;2022-12-18T14:44:28;27.92;;;14.30;;
62696;SDS011;48761;42.680;23.312;2022-12-18T14:46:54;26.33;;;15.15;;
62696;SDS011;48761;42.680;23.312;2022-12-18T14:49:27;26.95;;;14.65;;
62696;SDS011;48761;42.680;23.312;2022-12-18T14:51:56;28.55;;;14.68;;
62696;SDS011;48761;42.680;23.312;2022-12-18T14:54:25;27.05;;;14.02;;
62696;SDS011;48761;42.680;23.312;2022-12-18T14:57:03;27.00;;;14.95;;
62696;SDS011;48761;42.680;23.312;2022-12-18T14:59:31;24.70;;;14.68;;
62696;SDS011;48761;42.680;23.312;2022-12-18T15:04:39;25.85;;;15.13;;
62696;SDS011;48761;42.680;23.312;2022-12-18T15:07:13;27.02;;;15.55;;
62696;SDS011;48761;42.680;23.312;2022-12-18T15:15:00;27.77;;;15.15;;
62696;SDS011;48761;42.680;23.312;2022-12-18T15:17:26;27.58;;;14.07;;
62696;SDS011;48761;42.680;23.312;2022-12-18T15:19:53;28.70;;;14.30;;
62696;SDS011;48761;42.680;23.312;2022-12-18T15:22:34;25.95;;;14.07;;
62696;SDS011;48761;42.680;23.312;2022-12-18T15:25:01;26.10;;;13.90;;
62696;SDS011;48761;42.680;23.312;2022-12-18T15:27:35;25.70;;;13.77;;
62696;SDS011;48761;42.680;23.312;2022-12-18T15:32:34;26.23;;;14.25;;
62696;SDS011;48761;42.680;23.312;2022-12-18T15:37:32;28.98;;;16.00;;
62696;SDS011;48761;42.680;23.312;2022-12-18T15:39:58;31.15;;;16.33;;
62696;SDS011;48761;42.680;23.312;2022-12-18T15:42:24;31.20;;;15.77;;
62696;SDS011;48761;42.680;23.312;2022-12-18T15:44:50;28.42;;;16.55;;
62696;SDS011;48761;42.680;23.312;2022-12-18T15:47:16;28.42;;;16.80;;
62696;SDS011;48761;42.680;23.312;2022-12-18T15:49:42;28.58;;;15.70;;
62696;SDS011;48761;42.680;23.312;2022-12-18T15:52:08;31.42;;;15.70;;
62696;SDS011;48761;42.680;23.312;2022-12-18T15:54:37;26.75;;;14.35;;
62696;SDS011;48761;42.680;23.312;2022-12-18T15:57:03;26.15;;;15.35;;
62696;SDS011;48761;42.680;23.312;2022-12-18T15:59:29;27.42;;;14.93;;
62696;SDS011;48761;42.680;23.312;2022-12-18T16:01:55;27.58;;;16.27;;
62696;SDS011;48761;42.680;23.312;2022-12-18T16:04:22;32.53;;;16.15;;
62696;SDS011;48761;42.680;23.312;2022-12-18T16:06:48;30.45;;;16.73;;
62696;SDS011;48761;42.680;23.312;2022-12-18T16:09:15;31.20;;;16.92;;
62696;SDS011;48761;42.680;23.312;2022-12-18T16:11:41;30.15;;;17.10;;
62696;SDS011;48761;42.680;23.312;2022-12-18T16:14:25;27.58;;;16.15;;
62696;SDS011;48761;42.680;23.312;2022-12-18T16:16:54;29.48;;;17.17;;
62696;SDS011;48761;42.680;23.312;2022-12-18T16:19:27;30.10;;;17.42;;
62696;SDS011;48761;42.680;23.312;2022-12-18T16:21:55;30.05;;;17.67;;
62696;SDS011;48761;42.680;23.312;2022-12-18T16:24:23;32.42;;;18.58;;
62696;SDS011;48761;42.680;23.312;2022-12-18T16:26:51;33.03;;;17.83;;
62696;SDS011;48761;42.680;23.312;2022-12-18T16:29:19;31.55;;;18.15;;
62696;SDS011;48761;42.680;23.312;2022-12-18T16:31:48;27.55;;;16.88;;
62696;SDS011;48761;42.680;23.312;2022-12-18T16:36:51;31.75;;;17.58;;
62696;SDS011;48761;42.680;23.312;2022-12-18T16:39:17;30.75;;;17.17;;
62696;SDS011;48761;42.680;23.312;2022-12-18T16:41:43;32.45;;;16.73;;
62696;SDS011;48761;42.680;23.312;2022-12-18T16:44:09;30.23;;;16.52;;
62696;SDS011;48761;42.680;23.312;2022-12-18T16:46:35;29.08;;;16.52;;
62696;SDS011;48761;42.680;23.312;2022-12-18T16:49:01;29.10;;;16.77;;